Time;durP1;ratioP1;P1;durP2;ratioP2;P2;SDS_P1;SDS_P2;PMS_P1;PMS_P2;Temp;Humidity;BMP_temperature;BMP_pressure;BME280_temperature;BME280_humidity;BME280_pressure;Samples;Min_cycle;Max_cycle;Signal;HPM_P1;HPM_P2
2020/12/01 00:03:22;;;;;;;24.23;10.82;;;;;;;2.81;67.83;100207.50;10492655;28;20397;-52
2020/12/01 00:08:24;;;;;;;29.08;12.63;;;;;;;2.76;68.27;100210.28;10495666;28;20048;-50
2020/12/01 00:13:26;;;;;;;30.23;11.70;;;;;;;2.91;68.21;100208.75;10495569;28;20401;-54
2020/12/01 00:18:28;;;;;;;34.20;14.73;;;;;;;2.91;68.23;100200.97;10495494;28;20078;-50
2020/12/01 00:23:30;;;;;;;28.60;12.90;;;;;;;2.87;67.86;100215.84;10495122;28;20144;-54
2020/12/01 00:28:32;;;;;;;25.70;10.90;;;;;;;2.88;68.39;100198.50;10493756;28;20106;-54
2020/12/01 00:33:34;;;;;;;30.63;13.98;;;;;;;2.88;67.94;100204.53;10494206;28;20063;-54
2020/12/01 00:38:36;;;;;;;26.65;13.35;;;;;;;2.95;67.99;100199.91;10494799;28;20049;-54
2020/12/01 00:43:38;;;;;;;31.00;15.00;;;;;;;2.83;68.01;100203.06;10494485;28;20052;-54
2020/12/01 00:48:40;;;;;;;29.60;13.80;;;;;;;2.76;68.60;100210.28;10488528;28;20052;-52
2020/12/01 00:53:42;;;;;;;32.13;14.07;;;;;;;2.74;68.63;100196.53;10494122;28;20568;-53
2020/12/01 00:58:45;;;;;;;27.25;13.60;;;;;;;2.80;68.74;100200.59;10493643;28;20532;-50
2020/12/01 01:03:59;;;;;;;30.83;14.52;;;;;;;2.78;68.37;100195.50;10492972;28;20048;-50
2020/12/01 01:09:00;;;;;;;25.00;12.00;;;;;;;2.85;68.52;100194.28;10491863;28;20053;-56
2020/12/01 01:14:02;;;;;;;18.42;8.00;;;;;;;2.91;68.04;100203.56;10493432;28;21259;-54
2020/12/01 01:19:05;;;;;;;28.45;13.02;;;;;;;2.82;68.41;100202.22;10493561;28;20044;-50
2020/12/01 01:24:07;;;;;;;24.90;11.60;;;;;;;2.66;68.18;100209.88;10493498;28;20405;-53
2020/12/01 01:29:08;;;;;;;29.23;12.98;;;;;;;2.64;68.44;100206.47;10491607;28;20053;-50
2020/12/01 01:34:11;;;;;;;22.98;11.25;;;;;;;2.76;68.43;100216.31;10495327;28;20048;-53
2020/12/01 01:39:13;;;;;;;25.75;12.60;;;;;;;2.76;68.15;100200.75;10499322;28;20044;-58
2020/12/01 01:44:20;;;;;;;24.20;12.45;;;;;;;2.76;68.63;100211.13;10500547;28;20044;-50
2020/12/01 01:49:29;;;;;;;26.75;11.63;;;;;;;2.79;68.62;100204.97;10495581;28;20393;-51
2020/12/01 01:54:31;;;;;;;23.88;11.55;;;;;;;2.71;68.62;100204.44;10497482;28;20064;-50
2020/12/01 01:59:33;;;;;;;21.48;10.73;;;;;;;2.65;68.87;100215.09;10500641;28;20393;-51
2020/12/01 02:04:36;;;;;;;22.67;10.88;;;;;;;2.70;68.98;100214.00;10503057;28;20392;-50
2020/12/01 02:09:42;;;;;;;24.60;12.50;;;;;;;2.63;68.40;100212.59;10503042;28;20052;-52
2020/12/01 02:14:48;;;;;;;14.43;6.35;;;;;;;2.63;68.67;100224.72;10502958;28;20498;-55
2020/12/01 02:19:53;;;;;;;21.10;10.15;;;;;;;2.46;69.11;100236.72;10502706;28;20051;-52
2020/12/01 02:24:57;;;;;;;17.83;8.75;;;;;;;2.35;69.16;100225.09;10502501;28;20049;-53
2020/12/01 02:30:00;;;;;;;27.63;10.43;;;;;;;2.30;69.63;100228.72;10502289;28;20494;-54
2020/12/01 02:35:03;;;;;;;23.52;11.85;;;;;;;2.38;69.32;100231.00;10502177;28;20049;-53
2020/12/01 02:40:06;;;;;;;23.05;11.60;;;;;;;2.47;69.30;100235.78;10501897;28;20045;-49
2020/12/01 02:45:09;;;;;;;25.03;12.10;;;;;;;2.48;69.52;100231.44;10502095;28;20109;-52
2020/12/01 02:50:11;;;;;;;17.03;8.73;;;;;;;2.54;68.77;100223.38;10501243;28;20045;-54
2020/12/01 02:55:13;;;;;;;20.60;10.35;;;;;;;2.37;69.17;100239.69;10501536;28;20056;-50
2020/12/01 03:00:15;;;;;;;23.08;13.85;;;;;;;2.30;69.69;100228.72;10501085;28;20058;-52
2020/12/01 03:05:17;;;;;;;32.25;13.88;;;;;;;2.36;69.58;100231.97;10499154;28;20056;-53
2020/12/01 03:10:19;;;;;;;31.98;15.57;;;;;;;2.36;69.32;100238.00;10500435;28;20135;-52
2020/12/01 03:15:21;;;;;;;30.50;12.85;;;;;;;2.40;69.04;100234.38;10500168;28;20051;-51
2020/12/01 03:20:23;;;;;;;28.00;13.90;;;;;;;2.42;69.40;100247.25;10500021;28;20473;-54
2020/12/01 03:25:25;;;;;;;30.77;15.00;;;;;;;2.44;69.22;100240.28;10500661;28;20044;-59
2020/12/01 03:30:27;;;;;;;30.88;14.63;;;;;;;2.47;69.34;100240.13;10501214;28;20044;-52
2020/12/01 03:35:29;;;;;;;28.17;11.10;;;;;;;2.40;68.94;100249.06;10501150;28;20048;-52
2020/12/01 03:40:31;;;;;;;23.77;10.63;;;;;;;2.22;68.62;100250.72;10500643;28;20048;-57
2020/12/01 03:45:34;;;;;;;19.27;7.88;;;;;;;2.08;68.98;100253.88;10500103;28;20052;-53
2020/12/01 03:50:36;;;;;;;21.75;9.27;;;;;;;2.00;69.46;100261.13;10500267;28;20094;-57
2020/12/01 03:55:38;;;;;;;17.02;6.85;;;;;;;1.90;69.72;100272.78;10500137;28;20140;-50
2020/12/01 04:00:40;;;;;;;21.77;7.07;;;;;;;1.96;69.55;100254.38;10498835;28;20093;-54
2020/12/01 04:05:42;;;;;;;33.00;11.40;;;;;;;2.05;69.64;100269.56;10498484;28;20052;-50
2020/12/01 04:10:43;;;;;;;28.23;13.32;;;;;;;2.23;69.34;100271.41;10498697;28;20053;-50
2020/12/01 04:15:46;;;;;;;26.70;13.10;;;;;;;2.34;69.03;100270.09;10497815;28;20150;-54
2020/12/01 04:20:48;;;;;;;28.60;11.70;;;;;;;2.46;68.35;100279.94;10497036;28;20059;-51
2020/12/01 04:25:49;;;;;;;26.83;12.23;;;;;;;2.46;68.51;100280.81;10498126;28;20063;-51
2020/12/01 04:30:52;;;;;;;27.35;10.82;;;;;;;2.44;68.24;100277.44;10499149;28;20045;-54
2020/12/01 04:35:54;;;;;;;32.38;12.95;;;;;;;2.52;68.21;100274.50;10498484;28;20055;-52
2020/12/01 04:40:55;;;;;;;30.40;10.90;;;;;;;2.36;68.30;100279.50;10497330;28;20059;-51
2020/12/01 04:45:59;;;;;;;19.00;7.20;;;;;;;2.22;68.34;100290.47;10497193;28;20050;-53
2020/12/01 04:51:11;;;;;;;18.83;6.97;;;;;;;2.08;68.53;100296.22;10497444;28;20357;-52
2020/12/01 04:56:27;;;;;;;18.92;9.13;;;;;;;2.14;68.25;100289.09;10496877;28;20503;-51
2020/12/01 05:02:13;;;;;;;20.92;7.80;;;;;;;2.11;68.68;100284.03;10491951;28;20061;-54
2020/12/01 05:07:30;;;;;;;9.18;4.07;;;;;;;1.87;68.40;100302.25;10466712;28;20057;-50
2020/12/01 05:12:34;;;;;;;10.95;5.80;;;;;;;1.68;68.54;100294.38;10495468;28;20436;-54
2020/12/01 05:17:52;;;;;;;17.20;7.78;;;;;;;1.72;68.87;100298.50;10464919;28;20139;-53
2020/12/01 05:22:59;;;;;;;26.08;10.18;;;;;;;1.92;68.31;100302.09;10462376;28;20105;-53
2020/12/01 05:28:08;;;;;;;26.63;11.35;;;;;;;2.07;68.03;100299.72;10497382;28;20045;-55
2020/12/01 05:33:23;;;;;;;26.92;11.68;;;;;;;2.23;67.78;100299.09;10500237;28;20098;-54
2020/12/01 05:38:25;;;;;;;33.33;12.68;;;;;;;2.28;67.81;100300.59;10503998;28;20044;-54
2020/12/01 05:43:33;;;;;;;23.60;12.35;;;;;;;2.21;67.36;100309.50;10505506;28;20515;-54
2020/12/01 05:48:46;;;;;;;19.23;8.93;;;;;;;2.22;67.57;100313.81;10504170;28;20551;-53
2020/12/01 05:53:57;;;;;;;31.08;12.18;;;;;;;2.22;67.56;100303.44;10504612;28;20143;-53
2020/12/01 05:59:02;;;;;;;23.17;10.63;;;;;;;2.23;67.18;100315.50;10503461;28;20049;-53
2020/12/01 06:04:07;;;;;;;27.70;10.60;;;;;;;2.23;66.81;100323.28;10504588;28;20056;-55
2020/12/01 06:09:18;;;;;;;28.52;11.07;;;;;;;2.22;67.21;100325.94;10503473;28;20090;-53
2020/12/01 06:14:28;;;;;;;30.92;9.75;;;;;;;2.19;67.22;100336.44;10501389;28;20049;-52
2020/12/01 06:19:35;;;;;;;28.75;9.10;;;;;;;2.26;67.35;100343.91;10502782;28;20825;-54
2020/12/01 06:25:14;;;;;;;19.00;8.25;;;;;;;2.22;67.34;100339.75;10503137;28;20093;-53
2020/12/01 06:30:33;;;;;;;21.90;8.90;;;;;;;2.08;67.61;100353.25;10483452;28;20068;-53
2020/12/01 06:36:11;;;;;;;26.88;8.85;;;;;;;1.97;67.71;100355.47;10502142;28;20082;-53
2020/12/01 06:41:15;;;;;;;14.27;5.97;;;;;;;1.83;68.17;100361.16;10501107;28;20120;-52
2020/12/01 06:46:42;;;;;;;12.00;5.40;;;;;;;1.74;67.98;100374.47;10500732;28;20392;-53
2020/12/01 06:51:47;;;;;;;21.52;9.30;;;;;;;1.58;68.30;100379.41;10481440;28;20763;-53
2020/12/01 06:56:58;;;;;;;22.73;8.50;;;;;;;1.61;69.23;100375.84;10460089;28;20084;-53
2020/12/01 07:02:16;;;;;;;17.55;7.90;;;;;;;1.65;69.18;100380.00;10460790;28;20056;-56
2020/12/01 07:07:27;;;;;;;17.88;8.90;;;;;;;1.69;68.53;100371.19;10485241;28;20072;-51
2020/12/01 07:12:47;;;;;;;18.48;7.35;;;;;;;1.68;68.45;100382.50;10499870;28;20516;-52
2020/12/01 07:17:56;;;;;;;16.23;5.97;;;;;;;1.74;68.98;100382.25;10501415;28;20056;-51
2020/12/01 07:23:05;;;;;;;22.65;10.07;;;;;;;1.93;68.96;100381.56;10504356;28;20135;-54
2020/12/01 07:28:20;;;;;;;23.38;10.80;;;;;;;1.97;68.78;100381.38;10500751;28;20094;-52
2020/12/01 07:33:28;;;;;;;32.40;13.68;;;;;;;2.09;68.48;100390.41;10499914;28;20051;-54
2020/12/01 07:38:33;;;;;;;34.60;11.52;;;;;;;2.27;68.28;100389.69;10499959;28;20056;-53
2020/12/01 07:43:36;;;;;;;28.27;12.05;;;;;;;2.40;67.31;100395.25;10499221;28;20428;-55
2020/12/01 07:48:38;;;;;;;26.17;9.20;;;;;;;2.42;67.73;100400.38;10498963;28;20135;-52
2020/12/01 07:53:42;;;;;;;31.33;14.32;;;;;;;2.42;67.95;100402.97;10498886;28;20056;-52
2020/12/01 07:59:01;;;;;;;31.77;13.75;;;;;;;2.52;67.60;100405.13;10497422;28;20040;-52
2020/12/01 08:04:12;;;;;;;27.63;13.20;;;;;;;2.54;68.07;100387.72;10498243;28;20497;-54
2020/12/01 08:09:20;;;;;;;23.25;11.55;;;;;;;2.70;67.97;100395.72;10457474;28;20056;-53
2020/12/01 08:14:22;;;;;;;35.38;14.55;;;;;;;2.64;67.62;100393.38;10456520;28;20055;-53
2020/12/01 08:19:25;;;;;;;23.90;11.75;;;;;;;2.69;67.38;100399.22;10460184;28;20466;-55
2020/12/01 08:24:30;;;;;;;22.70;11.50;;;;;;;2.65;67.10;100399.41;10458317;28;20519;-54
2020/12/01 08:29:37;;;;;;;24.60;12.45;;;;;;;2.64;67.31;100398.56;10455434;28;20363;-53
2020/12/01 08:34:49;;;;;;;25.90;11.95;;;;;;;2.84;67.43;100402.13;10456357;28;20485;-53
2020/12/01 08:39:58;;;;;;;28.58;12.65;;;;;;;2.90;66.67;100404.44;10457637;28;20055;-54
2020/12/01 08:45:35;;;;;;;28.98;13.05;;;;;;;2.92;67.04;100407.81;10497456;28;20044;-56
2020/12/01 08:50:41;;;;;;;23.77;11.38;;;;;;;3.02;66.37;100403.94;10455934;28;20041;-53
2020/12/01 08:55:50;;;;;;;27.08;12.45;;;;;;;3.06;66.70;100405.47;10456957;28;20060;-54
2020/12/01 09:00:57;;;;;;;27.27;12.05;;;;;;;3.10;65.89;100399.22;10455947;28;20041;-53
2020/12/01 09:06:01;;;;;;;23.80;11.45;;;;;;;3.13;66.44;100401.69;10471478;28;20147;-53
2020/12/01 09:11:21;;;;;;;25.83;13.43;;;;;;;3.11;66.53;100411.31;10498150;28;20044;-57
2020/12/01 09:16:34;;;;;;;23.65;11.57;;;;;;;3.02;65.66;100401.34;10499278;28;20044;-53
2020/12/01 09:21:53;;;;;;;25.98;12.30;;;;;;;3.02;65.75;100408.25;10502192;28;20053;-54
2020/12/01 09:27:03;;;;;;;29.50;13.13;;;;;;;3.04;65.48;100402.09;10496499;28;20139;-56
2020/12/01 09:32:07;;;;;;;25.58;11.52;;;;;;;2.93;66.05;100418.16;10496288;28;20055;-53
2020/12/01 09:37:09;;;;;;;24.52;12.70;;;;;;;2.83;66.39;100410.78;10496694;28;20136;-53
2020/12/01 09:42:15;;;;;;;31.33;13.75;;;;;;;2.71;66.22;100417.31;10496404;28;20063;-53
2020/12/01 09:47:22;;;;;;;31.95;13.68;;;;;;;2.70;66.10;100421.69;10497778;28;20102;-60
2020/12/01 09:52:32;;;;;;;31.10;13.38;;;;;;;2.89;66.61;100423.50;10497386;28;20411;-54
2020/12/01 09:57:50;;;;;;;27.88;12.73;;;;;;;2.99;66.06;100427.44;10496279;28;20063;-54
2020/12/01 10:03:27;;;;;;;28.85;12.13;;;;;;;2.92;66.09;100429.41;10497183;28;20060;-56
2020/12/01 10:08:34;;;;;;;27.38;13.75;;;;;;;2.97;66.21;100426.66;10495883;28;20045;-52
2020/12/01 10:13:51;;;;;;;27.73;12.07;;;;;;;2.92;65.78;100432.03;10497253;28;20055;-53
2020/12/01 10:19:21;;;;;;;24.67;12.93;;;;;;;3.06;65.72;100426.25;10497734;28;20509;-55
2020/12/01 10:35:20;;;;;;;;;;;;;;;3.04;66.02;100442.81;10503480;28;20060;-54
2020/12/01 10:40:23;;;;;;;25.17;11.48;;;;;;;3.04;65.63;100442.81;10501986;28;20023;-54
2020/12/01 10:45:28;;;;;;;32.33;14.83;;;;;;;2.97;65.35;100437.03;10501187;28;20048;-54
2020/12/01 10:50:31;;;;;;;32.55;14.30;;;;;;;2.93;65.39;100438.09;10501442;28;20041;-53
2020/12/01 10:55:34;;;;;;;29.02;12.73;;;;;;;3.01;65.29;100441.19;10500089;28;20064;-53
2020/12/01 11:00:35;;;;;;;29.48;13.00;;;;;;;3.05;65.11;100442.75;10501386;28;20148;-57
2020/12/01 11:05:37;;;;;;;34.00;12.82;;;;;;;2.82;64.66;100448.06;10501476;28;20521;-53
2020/12/01 11:10:40;;;;;;;29.35;12.15;;;;;;;2.84;65.55;100460.06;10492066;28;20040;-53
2020/12/01 11:15:41;;;;;;;23.83;12.23;;;;;;;2.76;64.83;100455.19;10458714;28;20049;-54
2020/12/01 11:20:43;;;;;;;30.75;14.20;;;;;;;2.56;65.23;100455.16;10457834;28;20049;-55
2020/12/01 11:25:46;;;;;;;22.33;11.15;;;;;;;2.54;65.57;100449.19;10460038;28;20393;-53
2020/12/01 11:30:47;;;;;;;29.73;11.88;;;;;;;2.48;65.93;100444.22;10459266;28;20504;-52
2020/12/01 11:35:49;;;;;;;28.02;12.93;;;;;;;2.51;65.64;100441.53;10458117;28;20059;-54
2020/12/01 11:40:52;;;;;;;26.95;12.73;;;;;;;2.55;65.63;100450.84;10467745;28;20477;-54
2020/12/01 11:45:53;;;;;;;27.27;13.10;;;;;;;2.65;65.27;100452.19;10502944;28;20075;-63
2020/12/01 11:50:55;;;;;;;25.02;12.70;;;;;;;2.52;65.54;100453.56;10496525;28;20581;-54
2020/12/01 11:55:58;;;;;;;26.48;12.68;;;;;;;2.37;65.63;100451.59;10458114;28;20152;-55
2020/12/01 12:00:59;;;;;;;29.75;12.75;;;;;;;2.33;65.64;100450.03;10457672;28;20066;-54
2020/12/01 12:06:01;;;;;;;28.52;13.60;;;;;;;2.33;65.87;100457.81;10472118;28;20055;-56
2020/12/01 12:11:03;;;;;;;25.15;12.75;;;;;;;2.33;65.91;100456.06;10497086;28;20473;-54
2020/12/01 12:16:05;;;;;;;24.92;12.18;;;;;;;2.37;65.54;100472.34;10497758;28;20485;-54
2020/12/01 12:21:07;;;;;;;31.27;13.07;;;;;;;2.34;65.81;100464.69;10498157;28;20060;-54
2020/12/01 12:26:10;;;;;;;29.00;13.43;;;;;;;2.40;65.67;100474.81;10499395;28;20136;-59
2020/12/01 12:31:13;;;;;;;24.15;11.95;;;;;;;2.33;65.70;100478.56;10499221;28;20304;-55
2020/12/01 12:36:15;;;;;;;26.05;13.15;;;;;;;2.23;65.65;100486.72;10497022;28;20060;-53
2020/12/01 12:41:18;;;;;;;24.25;10.98;;;;;;;2.12;65.50;100501.81;10496684;28;20045;-54
2020/12/01 12:46:19;;;;;;;30.25;13.80;;;;;;;2.06;65.67;100512.44;10496785;28;20079;-54
2020/12/01 12:51:21;;;;;;;25.35;13.55;;;;;;;2.02;65.38;100513.44;10496024;28;20048;-54
2020/12/01 12:56:25;;;;;;;30.23;13.45;;;;;;;1.89;66.06;100522.59;10496113;28;20088;-54
2020/12/01 13:01:26;;;;;;;23.95;10.85;;;;;;;1.85;66.17;100527.03;10479164;28;20485;-55
2020/12/01 13:06:28;;;;;;;20.05;9.80;;;;;;;1.82;66.09;100528.00;10475303;28;20059;-53
2020/12/01 13:11:31;;;;;;;22.30;10.15;;;;;;;1.77;66.19;100522.13;10498294;28;20553;-55
2020/12/01 13:16:32;;;;;;;30.65;13.38;;;;;;;1.77;65.61;100522.13;10497856;28;20062;-56
2020/12/01 13:21:34;;;;;;;23.65;12.80;;;;;;;1.75;66.16;100516.13;10496908;28;20054;-53
2020/12/01 13:26:37;;;;;;;22.10;10.05;;;;;;;1.73;66.12;100520.56;10496002;28;20049;-54
2020/12/01 13:31:38;;;;;;;33.00;14.75;;;;;;;1.69;65.70;100542.28;10454166;28;20114;-53
2020/12/01 13:36:40;;;;;;;32.05;15.30;;;;;;;1.64;66.06;100536.44;10455957;28;20140;-54
2020/12/01 13:41:43;;;;;;;30.75;12.63;;;;;;;1.79;65.56;100541.06;10471755;28;20488;-54
2020/12/01 13:46:45;;;;;;;30.42;12.93;;;;;;;1.81;65.40;100549.63;10497063;28;20055;-54
2020/12/01 13:51:46;;;;;;;32.75;14.88;;;;;;;1.89;66.02;100551.13;10496457;28;20058;-53
2020/12/01 13:56:49;;;;;;;25.45;12.45;;;;;;;1.84;65.31;100549.50;10503120;28;20465;-54
2020/12/01 14:01:55;;;;;;;26.83;11.63;;;;;;;1.82;65.50;100564.28;10503703;28;20055;-55
2020/12/01 14:06:57;;;;;;;24.70;12.27;;;;;;;1.79;65.27;100558.38;10501934;28;20056;-53
2020/12/01 14:11:59;;;;;;;22.50;11.68;;;;;;;1.80;65.30;100552.28;10503639;28;20078;-56
2020/12/01 14:17:02;;;;;;;25.63;11.80;;;;;;;1.69;65.43;100565.59;10503957;28;20434;-54
2020/12/01 14:22:03;;;;;;;25.83;12.63;;;;;;;1.68;65.60;100561.31;10502737;28;20519;-54
2020/12/01 14:27:06;;;;;;;22.42;11.13;;;;;;;1.82;65.05;100553.09;10501625;28;20044;-54
2020/12/01 14:32:07;;;;;;;24.42;11.25;;;;;;;1.77;65.33;100561.00;10500955;28;20071;-53
2020/12/01 14:37:13;;;;;;;31.25;13.38;;;;;;;1.65;65.05;100560.59;10474653;28;20059;-53
2020/12/01 14:42:18;;;;;;;24.80;11.52;;;;;;;1.61;65.41;100580.59;10489474;28;20354;-56
2020/12/01 14:47:32;;;;;;;22.42;9.32;;;;;;;1.66;65.41;100562.28;10503693;28;20054;-56
2020/12/01 14:52:41;;;;;;;23.17;13.27;;;;;;;1.74;65.47;100583.59;10502557;28;20040;-52
2020/12/01 14:58:02;;;;;;;19.80;9.10;;;;;;;1.71;65.21;100581.97;10501881;28;20769;-55
2020/12/01 15:03:49;;;;;;;24.77;11.40;;;;;;;1.67;65.32;100582.13;10501482;28;20044;-55
2020/12/01 15:09:18;;;;;;;18.77;8.18;;;;;;;1.55;64.87;100585.97;10502679;28;20078;-53
2020/12/01 15:14:21;;;;;;;20.92;9.27;;;;;;;1.50;64.75;100593.91;10501785;28;20048;-52
2020/12/01 15:19:23;;;;;;;20.90;10.25;;;;;;;1.53;65.20;100582.59;10501481;28;20053;-54
2020/12/01 15:24:32;;;;;;;15.38;7.45;;;;;;;1.56;65.22;100591.09;10500556;28;20053;-53
2020/12/01 15:29:40;;;;;;;19.27;9.45;;;;;;;1.51;64.88;100594.75;10476621;28;20474;-52
2020/12/01 15:34:41;;;;;;;21.30;10.80;;;;;;;1.31;65.01;100592.81;10459701;28;20443;-54
2020/12/01 15:39:43;;;;;;;18.63;9.98;;;;;;;1.31;65.16;100598.84;10460020;28;20048;-59
2020/12/01 15:44:46;;;;;;;20.20;9.88;;;;;;;1.33;65.33;100604.84;10500469;28;20044;-55
2020/12/01 15:49:49;;;;;;;20.90;10.50;;;;;;;1.31;65.51;100614.38;10499203;28;20052;-53
2020/12/01 15:55:29;;;;;;;25.98;10.35;;;;;;;1.40;65.02;100607.22;10461243;28;20095;-53
2020/12/01 16:01:00;;;;;;;17.90;8.93;;;;;;;1.51;64.75;100616.34;10457605;28;20063;-53
2020/12/01 16:06:16;;;;;;;19.48;9.35;;;;;;;1.55;64.88;100628.28;10473030;28;20054;-53
2020/12/01 16:12:16;;;;;;;19.30;9.88;;;;;;;1.57;65.08;100625.63;10498553;28;20101;-52
2020/12/01 16:17:27;;;;;;;13.95;6.72;;;;;;;1.69;64.63;100640.78;10438379;28;20080;-53
2020/12/01 16:22:28;;;;;;;18.98;8.98;;;;;;;1.49;64.77;100631.09;10500381;28;20052;-55
2020/12/01 16:27:56;;;;;;;18.23;8.52;;;;;;;1.46;65.14;100643.28;10497373;28;20044;-52
2020/12/01 16:32:59;;;;;;;25.25;8.82;;;;;;;1.44;65.20;100645.06;10497610;28;20070;-54
2020/12/01 16:38:07;;;;;;;18.60;9.25;;;;;;;1.35;64.85;100641.88;10498873;28;20044;-53
2020/12/01 16:43:28;;;;;;;17.92;7.47;;;;;;;1.22;65.09;100635.41;10499479;28;20056;-53
2020/12/01 16:48:37;;;;;;;20.15;9.00;;;;;;;1.15;65.60;100645.13;10497578;28;20075;-54
2020/12/01 16:54:11;;;;;;;21.02;9.30;;;;;;;1.11;65.23;100648.72;10456933;28;20057;-53
2020/12/01 16:59:43;;;;;;;17.83;8.50;;;;;;;1.22;65.28;100639.75;10423608;28;20454;-55
2020/12/01 17:05:00;;;;;;;21.08;9.02;;;;;;;1.23;65.55;100641.44;10460386;28;20047;-52
2020/12/01 17:10:07;;;;;;;18.40;10.23;;;;;;;1.24;64.90;100649.16;10493651;28;20040;-53
2020/12/01 17:15:23;;;;;;;23.40;10.20;;;;;;;1.17;65.12;100647.69;10496959;28;20048;-52
2020/12/01 17:20:26;;;;;;;32.22;11.57;;;;;;;1.25;65.15;100656.03;10495611;28;20040;-53
2020/12/01 17:25:30;;;;;;;18.42;9.90;;;;;;;1.26;64.95;100652.56;10497958;28;20049;-55
2020/12/01 17:30:44;;;;;;;21.88;10.27;;;;;;;1.03;65.67;100655.00;10503978;28;20045;-52
2020/12/01 17:35:57;;;;;;;24.80;13.00;;;;;;;1.16;65.39;100656.31;10502123;28;20393;-52
2020/12/01 17:41:13;;;;;;;21.63;10.68;;;;;;;1.25;65.19;100661.22;10504415;28;20047;-52
2020/12/01 17:46:22;;;;;;;23.48;8.98;;;;;;;1.17;65.29;100673.56;10503218;28;20049;-52
2020/12/01 17:51:32;;;;;;;22.52;11.02;;;;;;;1.09;65.13;100671.19;10466549;28;20477;-52
2020/12/01 17:56:34;;;;;;;25.33;12.38;;;;;;;1.13;65.39;100672.78;10484716;28;20497;-52
2020/12/01 18:01:36;;;;;;;28.70;12.73;;;;;;;1.18;65.40;100690.78;10501647;28;20037;-53
2020/12/01 18:06:39;;;;;;;23.50;9.82;;;;;;;1.18;65.42;100690.78;10503657;28;20060;-53
2020/12/01 18:11:47;;;;;;;22.65;10.85;;;;;;;1.01;65.10;100693.03;10504110;28;20044;-54
2020/12/01 18:17:17;;;;;;;22.88;10.63;;;;;;;1.00;65.93;100693.94;10506899;28;20110;-52
2020/12/01 18:22:27;;;;;;;30.50;12.30;;;;;;;1.05;65.64;100699.84;10502738;28;20052;-54
2020/12/01 18:27:31;;;;;;;25.92;12.35;;;;;;;1.22;65.10;100694.97;10504096;28;20048;-54
2020/12/01 18:32:42;;;;;;;24.50;10.70;;;;;;;1.22;65.21;100696.72;10490608;28;20445;-53
2020/12/01 18:37:47;;;;;;;29.27;11.95;;;;;;;1.28;65.55;100697.38;10464775;28;20048;-52
2020/12/01 18:42:57;;;;;;;25.13;10.95;;;;;;;1.33;64.74;100692.91;10499105;28;20095;-52
2020/12/01 18:47:59;;;;;;;29.85;13.77;;;;;;;1.37;65.39;100685.88;10501445;28;20040;-52
2020/12/01 18:53:12;;;;;;;30.08;12.30;;;;;;;1.58;65.02;100687.78;10500446;28;20048;-53
2020/12/01 18:58:15;;;;;;;29.90;13.23;;;;;;;1.74;64.80;100693.31;10499654;28;20040;-53
2020/12/01 19:03:20;;;;;;;31.08;13.20;;;;;;;1.75;64.09;100688.97;10498264;28;20052;-51
2020/12/01 19:08:25;;;;;;;28.77;12.20;;;;;;;1.72;64.58;100687.31;10498278;28;20383;-52
2020/12/01 19:13:27;;;;;;;28.52;13.05;;;;;;;1.66;64.39;100687.53;10501477;28;20098;-53
2020/12/01 19:18:29;;;;;;;30.15;13.52;;;;;;;1.72;64.85;100702.03;10499682;28;20496;-51
2020/12/01 19:23:32;;;;;;;32.47;13.80;;;;;;;1.90;64.35;100709.22;10498351;28;20425;-51
2020/12/01 19:28:34;;;;;;;28.50;12.13;;;;;;;2.05;64.20;100715.63;10498347;28;20041;-52
2020/12/01 19:33:36;;;;;;;29.60;12.70;;;;;;;2.15;64.35;100711.81;10500705;28;20051;-52
2020/12/01 19:38:39;;;;;;;32.17;13.73;;;;;;;2.17;64.25;100714.38;10500548;28;20052;-52
2020/12/01 19:43:44;;;;;;;29.02;13.50;;;;;;;2.21;63.89;100727.16;10500391;28;20509;-52
2020/12/01 19:48:46;;;;;;;34.60;15.10;;;;;;;1.92;64.40;100722.97;10498100;28;20055;-52
2020/12/01 19:53:48;;;;;;;32.45;15.48;;;;;;;1.92;64.64;100725.56;10499638;28;20512;-51
2020/12/01 19:58:50;;;;;;;31.80;14.63;;;;;;;1.97;64.48;100722.81;10492837;28;20052;-52
2020/12/01 20:03:52;;;;;;;32.50;15.68;;;;;;;2.03;64.07;100739.03;10482528;28;20045;-55
2020/12/01 20:08:55;;;;;;;32.67;14.60;;;;;;;2.13;64.40;100739.59;10481277;28;20036;-51
2020/12/01 20:13:59;;;;;;;31.65;15.07;;;;;;;2.26;63.82;100750.38;10457885;28;20063;-51
2020/12/01 20:19:00;;;;;;;37.97;14.57;;;;;;;2.40;63.50;100747.28;10496866;28;20499;-52
2020/12/01 20:24:03;;;;;;;32.35;13.98;;;;;;;2.44;63.71;100754.94;10494511;28;20048;-52
2020/12/01 20:29:05;;;;;;;33.17;15.13;;;;;;;2.35;63.65;100741.44;10495823;28;20122;-53
2020/12/01 20:34:07;;;;;;;31.23;13.63;;;;;;;2.40;63.48;100749.91;10496502;28;20075;-53
2020/12/01 20:39:45;;;;;;;33.75;13.63;;;;;;;2.56;63.41;100753.66;10501118;28;20102;-52
2020/12/01 20:44:50;;;;;;;26.95;12.35;;;;;;;2.64;63.40;100762.00;10457624;28;20067;-53
2020/12/01 20:49:51;;;;;;;29.83;12.95;;;;;;;2.68;63.35;100761.03;10456584;28;20489;-49
2020/12/01 20:54:53;;;;;;;31.25;15.07;;;;;;;2.80;63.83;100777.03;10456927;28;20478;-48
2020/12/01 20:59:56;;;;;;;32.60;13.85;;;;;;;2.81;63.63;100776.16;10457117;28;20502;-50
2020/12/01 21:04:57;;;;;;;36.60;14.45;;;;;;;2.64;63.67;100782.78;10461478;28;20055;-50
2020/12/01 21:10:00;;;;;;;29.70;13.45;;;;;;;2.58;63.31;100775.22;10493952;28;20056;-48
2020/12/01 21:15:09;;;;;;;35.15;14.05;;;;;;;2.40;63.86;100773.25;10496358;28;20044;-50
2020/12/01 21:20:11;;;;;;;36.92;14.13;;;;;;;2.37;63.71;100782.00;10495957;28;20044;-48
2020/12/01 21:25:13;;;;;;;31.15;15.52;;;;;;;2.49;63.75;100788.50;10496793;28;20052;-50
2020/12/01 21:30:24;;;;;;;28.17;13.82;;;;;;;2.47;63.25;100790.31;10496176;28;20048;-48
2020/12/01 21:35:26;;;;;;;29.50;13.43;;;;;;;2.30;63.61;100778.75;10500034;28;20044;-49
2020/12/01 21:40:28;;;;;;;33.42;14.38;;;;;;;2.28;64.15;100787.50;10497177;28;20056;-53
2020/12/01 21:45:33;;;;;;;31.70;15.07;;;;;;;2.26;63.81;100782.34;10495521;28;20048;-50
2020/12/01 21:50:35;;;;;;;35.75;15.52;;;;;;;2.21;63.94;100798.97;10496928;28;20037;-48
2020/12/01 21:56:07;;;;;;;34.40;12.70;;;;;;;2.00;64.08;100791.00;10497513;28;20064;-47
2020/12/01 22:01:26;;;;;;;31.25;13.73;;;;;;;1.80;63.79;100794.22;10496088;28;20052;-49
2020/12/01 22:06:49;;;;;;;30.33;13.77;;;;;;;1.77;63.86;100793.47;10495078;28;20044;-53
2020/12/01 22:12:00;;;;;;;39.55;16.05;;;;;;;1.74;64.13;100794.41;10496134;28;20048;-48
2020/12/01 22:17:17;;;;;;;31.63;13.68;;;;;;;1.75;63.81;100806.47;10500531;28;20580;-48
2020/12/01 22:22:57;;;;;;;37.83;14.68;;;;;;;1.78;63.62;100806.38;10502301;28;20552;-48
2020/12/01 22:28:41;;;;;;;31.67;12.85;;;;;;;1.90;64.24;100815.53;10477879;28;20048;-48
2020/12/01 22:34:02;;;;;;;37.45;15.73;;;;;;;2.06;63.29;100814.16;10501471;28;20396;-50
2020/12/01 22:39:08;;;;;;;27.20;12.13;;;;;;;1.94;63.39;100821.47;10503180;28;20556;-50
2020/12/01 22:44:33;;;;;;;31.52;14.45;;;;;;;1.55;63.40;100819.22;10501480;28;20048;-48
2020/12/01 22:50:02;;;;;;;30.77;12.30;;;;;;;1.53;63.68;100815.81;10502226;28;20071;-50
2020/12/01 22:55:09;;;;;;;32.53;15.40;;;;;;;1.59;63.93;100810.44;10502876;28;20143;-49
2020/12/01 23:00:16;;;;;;;34.28;13.70;;;;;;;1.64;63.23;100812.91;10503056;28;20049;-50
2020/12/01 23:05:18;;;;;;;30.45;13.63;;;;;;;1.53;63.33;100824.44;10503159;28;20063;-50
2020/12/01 23:10:26;;;;;;;33.45;12.68;;;;;;;1.55;63.69;100824.41;10501573;28;20393;-49
2020/12/01 23:15:30;;;;;;;32.63;13.63;;;;;;;1.51;63.43;100822.78;10501231;28;20489;-48
2020/12/01 23:20:34;;;;;;;31.45;14.10;;;;;;;1.51;63.28;100817.59;10501251;28;20044;-51
2020/12/01 23:25:36;;;;;;;25.52;9.38;;;;;;;1.49;63.35;100819.41;10499781;28;20048;-48
2020/12/01 23:30:41;;;;;;;33.70;13.45;;;;;;;1.43;63.27;100824.78;10499832;28;20609;-49
2020/12/01 23:35:44;;;;;;;30.38;13.32;;;;;;;1.52;63.36;100830.53;10500267;28;20071;-51